sensor_id;sensor_type;location;lat;lon;timestamp;P1;durP1;ratioP1;P2;durP2;ratioP2
23747;SDS011;12054;53.662;10.126;2022-09-16T00:01:49;5.20;;;1.00;;
23747;SDS011;12054;53.662;10.126;2022-09-16T00:04:19;3.83;;;1.35;;
23747;SDS011;12054;53.662;10.126;2022-09-16T00:06:45;6.53;;;1.40;;
23747;SDS011;12054;53.662;10.126;2022-09-16T00:09:10;3.85;;;1.08;;
23747;SDS011;12054;53.662;10.126;2022-09-16T00:11:36;4.95;;;1.20;;
23747;SDS011;12054;53.662;10.126;2022-09-16T00:17:23;3.80;;;1.45;;
23747;SDS011;12054;53.662;10.126;2022-09-16T00:19:49;4.68;;;1.13;;
23747;SDS011;12054;53.662;10.126;2022-09-16T00:22:15;2.75;;;1.05;;
23747;SDS011;12054;53.662;10.126;2022-09-16T00:24:41;2.60;;;1.15;;
23747;SDS011;12054;53.662;10.126;2022-09-16T00:27:08;6.70;;;1.27;;
23747;SDS011;12054;53.662;10.126;2022-09-16T00:29:34;6.78;;;1.70;;
23747;SDS011;12054;53.662;10.126;2022-09-16T00:32:00;2.83;;;1.33;;
23747;SDS011;12054;53.662;10.126;2022-09-16T00:34:26;3.08;;;1.48;;
23747;SDS011;12054;53.662;10.126;2022-09-16T00:36:52;6.95;;;1.52;;
23747;SDS011;12054;53.662;10.126;2022-09-16T00:39:17;2.83;;;1.02;;
23747;SDS011;12054;53.662;10.126;2022-09-16T00:41:43;6.13;;;1.35;;
23747;SDS011;12054;53.662;10.126;2022-09-16T00:52:55;5.57;;;1.20;;
23747;SDS011;12054;53.662;10.126;2022-09-16T00:55:23;3.53;;;1.30;;
23747;SDS011;12054;53.662;10.126;2022-09-16T00:57:51;5.38;;;1.20;;
23747;SDS011;12054;53.662;10.126;2022-09-16T01:00:19;4.85;;;1.27;;
23747;SDS011;12054;53.662;10.126;2022-09-16T01:02:44;4.70;;;1.30;;
23747;SDS011;12054;53.662;10.126;2022-09-16T01:05:13;4.68;;;1.50;;
23747;SDS011;12054;53.662;10.126;2022-09-16T01:07:45;3.20;;;1.38;;
23747;SDS011;12054;53.662;10.126;2022-09-16T01:10:13;2.92;;;1.23;;
23747;SDS011;12054;53.662;10.126;2022-09-16T01:12:44;3.47;;;1.13;;
23747;SDS011;12054;53.662;10.126;2022-09-16T01:15:13;7.07;;;1.13;;
23747;SDS011;12054;53.662;10.126;2022-09-16T01:17:56;1.70;;;0.90;;
23747;SDS011;12054;53.662;10.126;2022-09-16T01:20:34;4.68;;;1.10;;
23747;SDS011;12054;53.662;10.126;2022-09-16T01:29:35;2.30;;;0.90;;
23747;SDS011;12054;53.662;10.126;2022-09-16T01:32:27;3.90;;;1.20;;
23747;SDS011;12054;53.662;10.126;2022-09-16T01:48:53;8.93;;;1.50;;
23747;SDS011;12054;53.662;10.126;2022-09-16T01:51:44;4.47;;;1.00;;
23747;SDS011;12054;53.662;10.126;2022-09-16T01:59:41;3.47;;;1.20;;
23747;SDS011;12054;53.662;10.126;2022-09-16T02:02:31;2.97;;;1.00;;
23747;SDS011;12054;53.662;10.126;2022-09-16T02:05:12;4.22;;;1.30;;
23747;SDS011;12054;53.662;10.126;2022-09-16T02:07:50;4.05;;;1.27;;
23747;SDS011;12054;53.662;10.126;2022-09-16T02:10:24;4.63;;;1.40;;
23747;SDS011;12054;53.662;10.126;2022-09-16T02:12:54;5.03;;;1.30;;
23747;SDS011;12054;53.662;10.126;2022-09-16T02:15:34;4.63;;;1.35;;
23747;SDS011;12054;53.662;10.126;2022-09-16T02:18:04;4.07;;;1.40;;
23747;SDS011;12054;53.662;10.126;2022-09-16T02:20:35;4.80;;;1.73;;
23747;SDS011;12054;53.662;10.126;2022-09-16T02:23:05;5.28;;;1.60;;
23747;SDS011;12054;53.662;10.126;2022-09-16T02:25:37;6.38;;;1.60;;
23747;SDS011;12054;53.662;10.126;2022-09-16T02:28:04;3.88;;;1.33;;
23747;SDS011;12054;53.662;10.126;2022-09-16T02:30:36;6.55;;;1.70;;
23747;SDS011;12054;53.662;10.126;2022-09-16T02:33:06;5.20;;;1.60;;
23747;SDS011;12054;53.662;10.126;2022-09-16T02:35:35;3.97;;;1.60;;
23747;SDS011;12054;53.662;10.126;2022-09-16T02:38:05;4.20;;;1.52;;
23747;SDS011;12054;53.662;10.126;2022-09-16T02:41:02;5.03;;;1.77;;
23747;SDS011;12054;53.662;10.126;2022-09-16T02:43:27;3.03;;;1.48;;
23747;SDS011;12054;53.662;10.126;2022-09-16T02:46:06;3.70;;;1.70;;
23747;SDS011;12054;53.662;10.126;2022-09-16T02:54:23;6.25;;;2.15;;
23747;SDS011;12054;53.662;10.126;2022-09-16T02:56:53;5.78;;;2.08;;
23747;SDS011;12054;53.662;10.126;2022-09-16T02:59:19;4.75;;;2.15;;
23747;SDS011;12054;53.662;10.126;2022-09-16T03:01:46;5.93;;;2.25;;
23747;SDS011;12054;53.662;10.126;2022-09-16T03:04:16;6.20;;;1.92;;
23747;SDS011;12054;53.662;10.126;2022-09-16T03:07:02;7.97;;;1.98;;
23747;SDS011;12054;53.662;10.126;2022-09-16T03:09:32;6.32;;;1.83;;
23747;SDS011;12054;53.662;10.126;2022-09-16T03:34:58;3.08;;;1.20;;
23747;SDS011;12054;53.662;10.126;2022-09-16T03:37:28;7.50;;;1.60;;
23747;SDS011;12054;53.662;10.126;2022-09-16T03:39:58;2.85;;;0.95;;
23747;SDS011;12054;53.662;10.126;2022-09-16T03:44:57;3.60;;;1.40;;
23747;SDS011;12054;53.662;10.126;2022-09-16T03:47:23;4.65;;;1.20;;
23747;SDS011;12054;53.662;10.126;2022-09-16T03:49:48;4.72;;;1.10;;
23747;SDS011;12054;53.662;10.126;2022-09-16T03:55:06;3.88;;;1.77;;
23747;SDS011;12054;53.662;10.126;2022-09-16T03:57:33;3.78;;;1.40;;
23747;SDS011;12054;53.662;10.126;2022-09-16T03:59:59;6.50;;;1.63;;
23747;SDS011;12054;53.662;10.126;2022-09-16T04:02:24;6.55;;;1.73;;
23747;SDS011;12054;53.662;10.126;2022-09-16T04:04:50;4.45;;;1.73;;
23747;SDS011;12054;53.662;10.126;2022-09-16T04:07:18;6.88;;;1.70;;
23747;SDS011;12054;53.662;10.126;2022-09-16T04:09:44;5.03;;;1.80;;
23747;SDS011;12054;53.662;10.126;2022-09-16T04:12:09;6.13;;;1.85;;
23747;SDS011;12054;53.662;10.126;2022-09-16T04:14:35;5.70;;;1.80;;
23747;SDS011;12054;53.662;10.126;2022-09-16T04:17:00;6.25;;;1.75;;
23747;SDS011;12054;53.662;10.126;2022-09-16T04:19:26;4.93;;;1.60;;
23747;SDS011;12054;53.662;10.126;2022-09-16T04:21:52;2.15;;;1.70;;
23747;SDS011;12054;53.662;10.126;2022-09-16T04:24:17;5.28;;;1.58;;
23747;SDS011;12054;53.662;10.126;2022-09-16T04:26:43;6.07;;;1.77;;
23747;SDS011;12054;53.662;10.126;2022-09-16T04:29:09;5.40;;;1.70;;
23747;SDS011;12054;53.662;10.126;2022-09-16T04:31:34;4.55;;;1.52;;
23747;SDS011;12054;53.662;10.126;2022-09-16T04:34:07;3.47;;;1.30;;
23747;SDS011;12054;53.662;10.126;2022-09-16T04:36:35;5.50;;;1.33;;
23747;SDS011;12054;53.662;10.126;2022-09-16T04:39:01;6.03;;;1.60;;
23747;SDS011;12054;53.662;10.126;2022-09-16T04:41:27;8.00;;;1.45;;
23747;SDS011;12054;53.662;10.126;2022-09-16T04:43:56;7.38;;;1.40;;
23747;SDS011;12054;53.662;10.126;2022-09-16T04:46:27;4.90;;;1.42;;
23747;SDS011;12054;53.662;10.126;2022-09-16T04:48:54;3.63;;;1.30;;
23747;SDS011;12054;53.662;10.126;2022-09-16T04:54:10;3.25;;;1.35;;
23747;SDS011;12054;53.662;10.126;2022-09-16T04:56:36;2.97;;;1.40;;
23747;SDS011;12054;53.662;10.126;2022-09-16T04:59:02;3.00;;;1.30;;
23747;SDS011;12054;53.662;10.126;2022-09-16T05:01:30;4.90;;;1.65;;
23747;SDS011;12054;53.662;10.126;2022-09-16T05:03:58;6.45;;;1.90;;
23747;SDS011;12054;53.662;10.126;2022-09-16T05:06:26;4.72;;;1.67;;
23747;SDS011;12054;53.662;10.126;2022-09-16T05:08:59;6.10;;;1.83;;
23747;SDS011;12054;53.662;10.126;2022-09-16T05:11:29;3.58;;;1.70;;
23747;SDS011;12054;53.662;10.126;2022-09-16T05:13:58;4.82;;;1.95;;
23747;SDS011;12054;53.662;10.126;2022-09-16T05:16:24;4.90;;;1.70;;
23747;SDS011;12054;53.662;10.126;2022-09-16T05:18:52;4.25;;;1.83;;
23747;SDS011;12054;53.662;10.126;2022-09-16T05:21:20;6.72;;;1.55;;
23747;SDS011;12054;53.662;10.126;2022-09-16T05:23:47;2.25;;;1.25;;
23747;SDS011;12054;53.662;10.126;2022-09-16T05:26:15;6.45;;;1.50;;
23747;SDS011;12054;53.662;10.126;2022-09-16T05:28:43;4.93;;;1.42;;
23747;SDS011;12054;53.662;10.126;2022-09-16T05:34:03;5.68;;;1.33;;
23747;SDS011;12054;53.662;10.126;2022-09-16T05:36:31;2.88;;;1.27;;
23747;SDS011;12054;53.662;10.126;2022-09-16T05:38:58;6.82;;;1.70;;
23747;SDS011;12054;53.662;10.126;2022-09-16T05:41:25;4.50;;;1.40;;
23747;SDS011;12054;53.662;10.126;2022-09-16T05:43:52;3.13;;;1.30;;
23747;SDS011;12054;53.662;10.126;2022-09-16T05:46:19;4.60;;;1.73;;
23747;SDS011;12054;53.662;10.126;2022-09-16T05:48:46;6.97;;;2.00;;
23747;SDS011;12054;53.662;10.126;2022-09-16T05:51:13;5.50;;;1.92;;
23747;SDS011;12054;53.662;10.126;2022-09-16T05:53:40;5.68;;;2.00;;
23747;SDS011;12054;53.662;10.126;2022-09-16T05:56:08;5.63;;;2.65;;
23747;SDS011;12054;53.662;10.126;2022-09-16T05:58:36;4.38;;;2.40;;
23747;SDS011;12054;53.662;10.126;2022-09-16T06:01:03;4.97;;;2.28;;
23747;SDS011;12054;53.662;10.126;2022-09-16T06:03:32;5.63;;;2.38;;
23747;SDS011;12054;53.662;10.126;2022-09-16T06:06:02;5.90;;;2.40;;
23747;SDS011;12054;53.662;10.126;2022-09-16T06:08:49;5.47;;;2.30;;
23747;SDS011;12054;53.662;10.126;2022-09-16T06:11:16;4.32;;;2.15;;
23747;SDS011;12054;53.662;10.126;2022-09-16T06:13:42;7.68;;;2.13;;
23747;SDS011;12054;53.662;10.126;2022-09-16T06:16:08;5.78;;;2.00;;
23747;SDS011;12054;53.662;10.126;2022-09-16T06:18:34;6.63;;;1.80;;
23747;SDS011;12054;53.662;10.126;2022-09-16T06:21:05;5.45;;;1.70;;
23747;SDS011;12054;53.662;10.126;2022-09-16T06:23:32;3.30;;;1.70;;
23747;SDS011;12054;53.662;10.126;2022-09-16T06:26:03;4.85;;;2.05;;
23747;SDS011;12054;53.662;10.126;2022-09-16T06:28:33;5.43;;;1.52;;
23747;SDS011;12054;53.662;10.126;2022-09-16T06:31:04;8.00;;;1.88;;
23747;SDS011;12054;53.662;10.126;2022-09-16T06:33:31;8.15;;;1.52;;
23747;SDS011;12054;53.662;10.126;2022-09-16T06:36:04;5.70;;;1.92;;
23747;SDS011;12054;53.662;10.126;2022-09-16T06:38:31;6.70;;;1.70;;
23747;SDS011;12054;53.662;10.126;2022-09-16T06:40:58;5.68;;;1.88;;
23747;SDS011;12054;53.662;10.126;2022-09-16T06:43:24;5.50;;;1.70;;
23747;SDS011;12054;53.662;10.126;2022-09-16T06:45:50;5.25;;;1.45;;
23747;SDS011;12054;53.662;10.126;2022-09-16T06:48:19;3.13;;;1.40;;
23747;SDS011;12054;53.662;10.126;2022-09-16T06:50:45;5.68;;;1.73;;
23747;SDS011;12054;53.662;10.126;2022-09-16T06:53:10;8.95;;;1.58;;
23747;SDS011;12054;53.662;10.126;2022-09-16T06:55:36;3.30;;;1.48;;
23747;SDS011;12054;53.662;10.126;2022-09-16T06:58:01;6.30;;;1.50;;
23747;SDS011;12054;53.662;10.126;2022-09-16T07:00:28;4.15;;;1.50;;
23747;SDS011;12054;53.662;10.126;2022-09-16T07:02:53;5.32;;;1.40;;
23747;SDS011;12054;53.662;10.126;2022-09-16T07:05:19;5.07;;;1.10;;
23747;SDS011;12054;53.662;10.126;2022-09-16T07:07:45;7.60;;;1.27;;
23747;SDS011;12054;53.662;10.126;2022-09-16T07:10:10;4.70;;;1.17;;
23747;SDS011;12054;53.662;10.126;2022-09-16T07:12:36;3.55;;;1.00;;
23747;SDS011;12054;53.662;10.126;2022-09-16T07:15:01;6.68;;;1.15;;
23747;SDS011;12054;53.662;10.126;2022-09-16T07:17:27;5.72;;;1.33;;
23747;SDS011;12054;53.662;10.126;2022-09-16T07:19:54;5.13;;;1.10;;
23747;SDS011;12054;53.662;10.126;2022-09-16T07:22:19;5.53;;;1.05;;
23747;SDS011;12054;53.662;10.126;2022-09-16T07:24:45;5.63;;;1.00;;
23747;SDS011;12054;53.662;10.126;2022-09-16T07:27:10;5.47;;;1.25;;
23747;SDS011;12054;53.662;10.126;2022-09-16T07:29:39;7.93;;;1.20;;
23747;SDS011;12054;53.662;10.126;2022-09-16T07:32:04;3.47;;;1.13;;
23747;SDS011;12054;53.662;10.126;2022-09-16T07:34:30;6.88;;;1.00;;
23747;SDS011;12054;53.662;10.126;2022-09-16T07:36:56;6.07;;;1.17;;
23747;SDS011;12054;53.662;10.126;2022-09-16T07:39:23;14.18;;;2.58;;
23747;SDS011;12054;53.662;10.126;2022-09-16T07:41:49;5.72;;;1.45;;
23747;SDS011;12054;53.662;10.126;2022-09-16T07:44:16;5.13;;;0.90;;
23747;SDS011;12054;53.662;10.126;2022-09-16T07:46:42;4.32;;;1.23;;
23747;SDS011;12054;53.662;10.126;2022-09-16T07:49:10;9.48;;;1.15;;
23747;SDS011;12054;53.662;10.126;2022-09-16T07:51:42;4.97;;;0.70;;
23747;SDS011;12054;53.662;10.126;2022-09-16T07:54:09;3.58;;;1.10;;
23747;SDS011;12054;53.662;10.126;2022-09-16T07:56:37;8.40;;;1.50;;
23747;SDS011;12054;53.662;10.126;2022-09-16T07:59:06;6.32;;;0.98;;
23747;SDS011;12054;53.662;10.126;2022-09-16T08:01:34;6.65;;;0.90;;
23747;SDS011;12054;53.662;10.126;2022-09-16T08:03:59;5.70;;;1.08;;
23747;SDS011;12054;53.662;10.126;2022-09-16T08:06:27;6.05;;;0.90;;
23747;SDS011;12054;53.662;10.126;2022-09-16T08:08:54;4.45;;;1.20;;
23747;SDS011;12054;53.662;10.126;2022-09-16T08:11:21;6.70;;;1.02;;
23747;SDS011;12054;53.662;10.126;2022-09-16T08:16:16;6.40;;;0.90;;
23747;SDS011;12054;53.662;10.126;2022-09-16T08:18:44;7.38;;;1.25;;
23747;SDS011;12054;53.662;10.126;2022-09-16T08:21:11;6.13;;;1.10;;
23747;SDS011;12054;53.662;10.126;2022-09-16T08:23:39;4.50;;;0.88;;
23747;SDS011;12054;53.662;10.126;2022-09-16T08:26:05;3.88;;;0.80;;
23747;SDS011;12054;53.662;10.126;2022-09-16T08:28:32;6.07;;;1.00;;
23747;SDS011;12054;53.662;10.126;2022-09-16T08:30:59;4.75;;;0.88;;
23747;SDS011;12054;53.662;10.126;2022-09-16T08:33:25;5.95;;;0.90;;
23747;SDS011;12054;53.662;10.126;2022-09-16T08:36:04;6.85;;;0.98;;
23747;SDS011;12054;53.662;10.126;2022-09-16T08:38:30;4.20;;;0.80;;
23747;SDS011;12054;53.662;10.126;2022-09-16T08:41:00;5.55;;;1.10;;
23747;SDS011;12054;53.662;10.126;2022-09-16T08:43:52;4.75;;;1.00;;
23747;SDS011;12054;53.662;10.126;2022-09-16T08:52:11;7.20;;;1.02;;
23747;SDS011;12054;53.662;10.126;2022-09-16T08:55:19;6.10;;;1.02;;
23747;SDS011;12054;53.662;10.126;2022-09-16T08:57:53;5.93;;;1.10;;
23747;SDS011;12054;53.662;10.126;2022-09-16T09:00:30;3.60;;;0.90;;
23747;SDS011;12054;53.662;10.126;2022-09-16T09:03:12;6.97;;;1.13;;
23747;SDS011;12054;53.662;10.126;2022-09-16T09:05:55;6.32;;;1.08;;
23747;SDS011;12054;53.662;10.126;2022-09-16T09:08:45;5.13;;;1.00;;
23747;SDS011;12054;53.662;10.126;2022-09-16T09:22:24;4.93;;;1.00;;
23747;SDS011;12054;53.662;10.126;2022-09-16T09:30:24;7.82;;;0.93;;
23747;SDS011;12054;53.662;10.126;2022-09-16T09:33:04;5.75;;;1.00;;
23747;SDS011;12054;53.662;10.126;2022-09-16T09:46:30;5.45;;;1.25;;
23747;SDS011;12054;53.662;10.126;2022-09-16T09:49:03;3.75;;;0.90;;
23747;SDS011;12054;53.662;10.126;2022-09-16T09:51:56;8.10;;;1.20;;
23747;SDS011;12054;53.662;10.126;2022-09-16T09:54:33;7.82;;;1.10;;
23747;SDS011;12054;53.662;10.126;2022-09-16T09:57:01;5.22;;;0.93;;
23747;SDS011;12054;53.662;10.126;2022-09-16T09:59:37;4.88;;;1.10;;
23747;SDS011;12054;53.662;10.126;2022-09-16T10:02:20;7.38;;;1.25;;
23747;SDS011;12054;53.662;10.126;2022-09-16T10:04:46;7.70;;;1.13;;
23747;SDS011;12054;53.662;10.126;2022-09-16T10:07:21;5.72;;;1.10;;
23747;SDS011;12054;53.662;10.126;2022-09-16T10:09:58;4.32;;;0.77;;
23747;SDS011;12054;53.662;10.126;2022-09-16T10:12:29;4.65;;;1.55;;
23747;SDS011;12054;53.662;10.126;2022-09-16T10:14:57;4.25;;;0.95;;
23747;SDS011;12054;53.662;10.126;2022-09-16T10:17:25;6.05;;;0.93;;
23747;SDS011;12054;53.662;10.126;2022-09-16T10:19:56;3.25;;;1.00;;
23747;SDS011;12054;53.662;10.126;2022-09-16T10:22:34;4.80;;;1.10;;
23747;SDS011;12054;53.662;10.126;2022-09-16T10:25:19;6.97;;;1.10;;
23747;SDS011;12054;53.662;10.126;2022-09-16T10:27:55;8.02;;;1.13;;
23747;SDS011;12054;53.662;10.126;2022-09-16T10:30:25;3.70;;;1.02;;
23747;SDS011;12054;53.662;10.126;2022-09-16T10:33:01;5.63;;;1.00;;
23747;SDS011;12054;53.662;10.126;2022-09-16T10:35:36;4.35;;;0.75;;
23747;SDS011;12054;53.662;10.126;2022-09-16T10:38:04;5.50;;;1.00;;
23747;SDS011;12054;53.662;10.126;2022-09-16T10:40:37;6.10;;;1.15;;
23747;SDS011;12054;53.662;10.126;2022-09-16T10:43:14;5.13;;;1.10;;
23747;SDS011;12054;53.662;10.126;2022-09-16T10:45:45;5.40;;;1.20;;
23747;SDS011;12054;53.662;10.126;2022-09-16T10:48:14;5.40;;;1.60;;
23747;SDS011;12054;53.662;10.126;2022-09-16T10:50:58;5.10;;;1.00;;
23747;SDS011;12054;53.662;10.126;2022-09-16T10:56:00;7.03;;;1.13;;
23747;SDS011;12054;53.662;10.126;2022-09-16T10:58:28;4.35;;;0.90;;
23747;SDS011;12054;53.662;10.126;2022-09-16T11:12:00;4.13;;;1.10;;
23747;SDS011;12054;53.662;10.126;2022-09-16T11:22:48;6.53;;;1.10;;
23747;SDS011;12054;53.662;10.126;2022-09-16T11:25:32;7.05;;;0.98;;
23747;SDS011;12054;53.662;10.126;2022-09-16T11:30:24;5.45;;;1.00;;
23747;SDS011;12054;53.662;10.126;2022-09-16T11:35:43;4.68;;;1.25;;
23747;SDS011;12054;53.662;10.126;2022-09-16T11:41:07;5.45;;;0.80;;
23747;SDS011;12054;53.662;10.126;2022-09-16T11:49:10;5.43;;;1.17;;
23747;SDS011;12054;53.662;10.126;2022-09-16T11:51:43;5.30;;;1.38;;
23747;SDS011;12054;53.662;10.126;2022-09-16T11:54:37;4.50;;;0.85;;
23747;SDS011;12054;53.662;10.126;2022-09-16T11:57:25;6.18;;;1.30;;
23747;SDS011;12054;53.662;10.126;2022-09-16T11:59:55;3.22;;;1.00;;
23747;SDS011;12054;53.662;10.126;2022-09-16T12:05:37;6.88;;;1.20;;
23747;SDS011;12054;53.662;10.126;2022-09-16T12:10:48;4.13;;;0.77;;
23747;SDS011;12054;53.662;10.126;2022-09-16T12:13:25;5.60;;;1.08;;
23747;SDS011;12054;53.662;10.126;2022-09-16T12:16:14;6.80;;;1.05;;
23747;SDS011;12054;53.662;10.126;2022-09-16T12:18:49;8.13;;;0.90;;
23747;SDS011;12054;53.662;10.126;2022-09-16T12:21:27;4.75;;;1.02;;
23747;SDS011;12054;53.662;10.126;2022-09-16T12:24:08;7.47;;;1.38;;
23747;SDS011;12054;53.662;10.126;2022-09-16T12:26:36;7.18;;;1.25;;
23747;SDS011;12054;53.662;10.126;2022-09-16T12:32:11;3.97;;;1.08;;
23747;SDS011;12054;53.662;10.126;2022-09-16T12:39:50;3.40;;;0.77;;
23747;SDS011;12054;53.662;10.126;2022-09-16T12:48:11;3.38;;;1.00;;
23747;SDS011;12054;53.662;10.126;2022-09-16T13:02:29;4.53;;;0.88;;
23747;SDS011;12054;53.662;10.126;2022-09-16T13:05:03;5.10;;;0.75;;
23747;SDS011;12054;53.662;10.126;2022-09-16T13:07:42;6.50;;;1.08;;
23747;SDS011;12054;53.662;10.126;2022-09-16T13:10:16;5.90;;;0.90;;
23747;SDS011;12054;53.662;10.126;2022-09-16T13:12:55;6.25;;;1.15;;
23747;SDS011;12054;53.662;10.126;2022-09-16T13:15:27;4.13;;;0.88;;
23747;SDS011;12054;53.662;10.126;2022-09-16T13:18:08;5.72;;;0.73;;
23747;SDS011;12054;53.662;10.126;2022-09-16T13:20:55;5.13;;;1.05;;
23747;SDS011;12054;53.662;10.126;2022-09-16T13:23:24;4.28;;;0.88;;
23747;SDS011;12054;53.662;10.126;2022-09-16T13:26:04;3.75;;;0.90;;
23747;SDS011;12054;53.662;10.126;2022-09-16T13:41:13;2.38;;;0.70;;
23747;SDS011;12054;53.662;10.126;2022-09-16T13:43:57;5.25;;;1.05;;
23747;SDS011;12054;53.662;10.126;2022-09-16T13:51:39;2.83;;;0.80;;
23747;SDS011;12054;53.662;10.126;2022-09-16T13:54:31;4.15;;;0.70;;
23747;SDS011;12054;53.662;10.126;2022-09-16T14:00:19;3.55;;;0.60;;
23747;SDS011;12054;53.662;10.126;2022-09-16T14:05:26;3.33;;;0.50;;
23747;SDS011;12054;53.662;10.126;2022-09-16T14:08:20;2.45;;;0.60;;
23747;SDS011;12054;53.662;10.126;2022-09-16T14:14:13;4.10;;;0.70;;
23747;SDS011;12054;53.662;10.126;2022-09-16T14:16:41;4.38;;;0.85;;
23747;SDS011;12054;53.662;10.126;2022-09-16T14:22:00;4.28;;;0.93;;
23747;SDS011;12054;53.662;10.126;2022-09-16T14:24:32;2.53;;;0.50;;
23747;SDS011;12054;53.662;10.126;2022-09-16T14:26:59;3.03;;;0.80;;
23747;SDS011;12054;53.662;10.126;2022-09-16T14:29:25;6.28;;;1.00;;
23747;SDS011;12054;53.662;10.126;2022-09-16T14:31:52;5.65;;;1.50;;
23747;SDS011;12054;53.662;10.126;2022-09-16T14:34:26;3.35;;;0.80;;
23747;SDS011;12054;53.662;10.126;2022-09-16T14:36:55;4.60;;;1.58;;
23747;SDS011;12054;53.662;10.126;2022-09-16T14:39:22;3.00;;;1.13;;
23747;SDS011;12054;53.662;10.126;2022-09-16T14:41:55;4.68;;;1.20;;
23747;SDS011;12054;53.662;10.126;2022-09-16T14:44:26;3.53;;;1.20;;
23747;SDS011;12054;53.662;10.126;2022-09-16T14:49:29;3.33;;;1.08;;
23747;SDS011;12054;53.662;10.126;2022-09-16T14:51:56;4.28;;;1.00;;
23747;SDS011;12054;53.662;10.126;2022-09-16T14:54:26;3.05;;;0.80;;
23747;SDS011;12054;53.662;10.126;2022-09-16T14:56:59;5.20;;;1.05;;
23747;SDS011;12054;53.662;10.126;2022-09-16T14:59:30;4.55;;;1.48;;
23747;SDS011;12054;53.662;10.126;2022-09-16T15:02:03;5.25;;;1.15;;
23747;SDS011;12054;53.662;10.126;2022-09-16T15:04:34;3.20;;;0.80;;
23747;SDS011;12054;53.662;10.126;2022-09-16T15:07:09;3.55;;;0.70;;
23747;SDS011;12054;53.662;10.126;2022-09-16T15:09:42;4.30;;;1.00;;
23747;SDS011;12054;53.662;10.126;2022-09-16T15:12:24;4.55;;;1.10;;
23747;SDS011;12054;53.662;10.126;2022-09-16T15:14:56;3.17;;;1.00;;
23747;SDS011;12054;53.662;10.126;2022-09-16T15:17:22;4.70;;;1.42;;
23747;SDS011;12054;53.662;10.126;2022-09-16T15:19:55;4.40;;;1.02;;
23747;SDS011;12054;53.662;10.126;2022-09-16T15:22:22;3.72;;;1.38;;
23747;SDS011;12054;53.662;10.126;2022-09-16T15:24:50;7.75;;;1.77;;
23747;SDS011;12054;53.662;10.126;2022-09-16T15:27:22;4.55;;;1.65;;
23747;SDS011;12054;53.662;10.126;2022-09-16T15:29:52;4.35;;;0.90;;
23747;SDS011;12054;53.662;10.126;2022-09-16T15:32:21;3.20;;;0.88;;
23747;SDS011;12054;53.662;10.126;2022-09-16T15:37:49;5.28;;;1.10;;
23747;SDS011;12054;53.662;10.126;2022-09-16T15:45:56;4.93;;;0.90;;
23747;SDS011;12054;53.662;10.126;2022-09-16T15:48:31;2.78;;;1.00;;
23747;SDS011;12054;53.662;10.126;2022-09-16T15:51:04;5.88;;;1.10;;
23747;SDS011;12054;53.662;10.126;2022-09-16T15:53:43;5.03;;;1.80;;
23747;SDS011;12054;53.662;10.126;2022-09-16T15:58:49;4.97;;;0.93;;
23747;SDS011;12054;53.662;10.126;2022-09-16T16:04:04;4.70;;;1.20;;
23747;SDS011;12054;53.662;10.126;2022-09-16T16:06:45;4.07;;;0.80;;
23747;SDS011;12054;53.662;10.126;2022-09-16T16:11:52;5.00;;;1.10;;
23747;SDS011;12054;53.662;10.126;2022-09-16T16:14:21;5.75;;;1.30;;
23747;SDS011;12054;53.662;10.126;2022-09-16T16:16:48;7.15;;;1.48;;
23747;SDS011;12054;53.662;10.126;2022-09-16T16:19:18;4.55;;;1.33;;
23747;SDS011;12054;53.662;10.126;2022-09-16T16:21:43;7.20;;;1.48;;
23747;SDS011;12054;53.662;10.126;2022-09-16T16:24:12;5.10;;;1.45;;
23747;SDS011;12054;53.662;10.126;2022-09-16T16:26:38;4.53;;;1.17;;
23747;SDS011;12054;53.662;10.126;2022-09-16T16:29:04;3.40;;;1.30;;
23747;SDS011;12054;53.662;10.126;2022-09-16T16:31:29;5.80;;;1.63;;
23747;SDS011;12054;53.662;10.126;2022-09-16T16:33:56;6.82;;;2.17;;
23747;SDS011;12054;53.662;10.126;2022-09-16T16:36:22;6.40;;;1.30;;
23747;SDS011;12054;53.662;10.126;2022-09-16T16:38:48;4.30;;;1.20;;
23747;SDS011;12054;53.662;10.126;2022-09-16T16:41:20;5.85;;;1.40;;
23747;SDS011;12054;53.662;10.126;2022-09-16T16:43:46;9.60;;;1.70;;
23747;SDS011;12054;53.662;10.126;2022-09-16T16:46:12;7.03;;;1.52;;
23747;SDS011;12054;53.662;10.126;2022-09-16T16:48:38;9.80;;;1.80;;
23747;SDS011;12054;53.662;10.126;2022-09-16T16:51:05;7.35;;;1.75;;
23747;SDS011;12054;53.662;10.126;2022-09-16T16:53:32;13.95;;;1.88;;
23747;SDS011;12054;53.662;10.126;2022-09-16T16:56:08;6.60;;;1.60;;
23747;SDS011;12054;53.662;10.126;2022-09-16T16:58:36;11.23;;;1.77;;
23747;SDS011;12054;53.662;10.126;2022-09-16T17:03:37;9.88;;;2.30;;
23747;SDS011;12054;53.662;10.126;2022-09-16T17:06:03;12.82;;;2.22;;
23747;SDS011;12054;53.662;10.126;2022-09-16T17:08:31;11.70;;;2.83;;
23747;SDS011;12054;53.662;10.126;2022-09-16T17:11:07;7.47;;;1.90;;
23747;SDS011;12054;53.662;10.126;2022-09-16T17:13:44;13.23;;;2.22;;
23747;SDS011;12054;53.662;10.126;2022-09-16T17:16:14;9.70;;;1.95;;
23747;SDS011;12054;53.662;10.126;2022-09-16T17:18:42;9.82;;;2.40;;
23747;SDS011;12054;53.662;10.126;2022-09-16T17:21:18;13.27;;;2.35;;
23747;SDS011;12054;53.662;10.126;2022-09-16T17:23:48;8.20;;;1.98;;
23747;SDS011;12054;53.662;10.126;2022-09-16T17:26:15;16.20;;;2.80;;
23747;SDS011;12054;53.662;10.126;2022-09-16T17:31:15;10.40;;;2.42;;
23747;SDS011;12054;53.662;10.126;2022-09-16T17:33:45;17.10;;;2.50;;
23747;SDS011;12054;53.662;10.126;2022-09-16T17:36:12;16.92;;;2.58;;
23747;SDS011;12054;53.662;10.126;2022-09-16T17:38:39;17.92;;;2.60;;
23747;SDS011;12054;53.662;10.126;2022-09-16T17:41:06;11.18;;;2.35;;
23747;SDS011;12054;53.662;10.126;2022-09-16T17:43:33;13.70;;;2.47;;
23747;SDS011;12054;53.662;10.126;2022-09-16T17:45:59;21.75;;;3.10;;
23747;SDS011;12054;53.662;10.126;2022-09-16T17:48:26;18.15;;;3.00;;
23747;SDS011;12054;53.662;10.126;2022-09-16T17:50:53;15.50;;;2.25;;
23747;SDS011;12054;53.662;10.126;2022-09-16T17:53:18;11.55;;;2.40;;
23747;SDS011;12054;53.662;10.126;2022-09-16T17:55:44;14.82;;;2.95;;
23747;SDS011;12054;53.662;10.126;2022-09-16T17:58:10;12.93;;;2.78;;
23747;SDS011;12054;53.662;10.126;2022-09-16T18:00:36;14.52;;;2.95;;
23747;SDS011;12054;53.662;10.126;2022-09-16T18:05:34;10.68;;;2.00;;
23747;SDS011;12054;53.662;10.126;2022-09-16T18:08:00;19.63;;;2.65;;
23747;SDS011;12054;53.662;10.126;2022-09-16T18:10:27;14.45;;;2.60;;
23747;SDS011;12054;53.662;10.126;2022-09-16T18:12:53;14.18;;;2.40;;
23747;SDS011;12054;53.662;10.126;2022-09-16T18:15:22;14.80;;;2.35;;
23747;SDS011;12054;53.662;10.126;2022-09-16T18:17:48;14.60;;;2.15;;
23747;SDS011;12054;53.662;10.126;2022-09-16T18:20:13;15.93;;;2.30;;
23747;SDS011;12054;53.662;10.126;2022-09-16T18:22:39;14.98;;;2.47;;
23747;SDS011;12054;53.662;10.126;2022-09-16T18:25:04;14.32;;;2.60;;
23747;SDS011;12054;53.662;10.126;2022-09-16T18:27:30;9.75;;;2.45;;
23747;SDS011;12054;53.662;10.126;2022-09-16T18:29:56;12.73;;;2.80;;
23747;SDS011;12054;53.662;10.126;2022-09-16T18:32:22;9.13;;;2.83;;
23747;SDS011;12054;53.662;10.126;2022-09-16T18:34:48;13.48;;;4.18;;
23747;SDS011;12054;53.662;10.126;2022-09-16T18:37:14;17.05;;;4.75;;
23747;SDS011;12054;53.662;10.126;2022-09-16T18:39:39;10.50;;;3.10;;
23747;SDS011;12054;53.662;10.126;2022-09-16T18:42:05;12.75;;;3.35;;
23747;SDS011;12054;53.662;10.126;2022-09-16T18:44:30;14.48;;;3.67;;
23747;SDS011;12054;53.662;10.126;2022-09-16T18:46:56;11.50;;;2.72;;
23747;SDS011;12054;53.662;10.126;2022-09-16T18:49:21;16.38;;;2.72;;